createdAt,value
2019-04-10T00:00:56.386Z,21.20
2019-04-10T00:03:32.872Z,20.30
2019-04-10T00:05:58.351Z,21.00
2019-04-10T00:08:28.340Z,20.90
2019-04-10T00:10:58.601Z,20.30
2019-04-10T00:13:29.313Z,21.10
2019-04-10T00:15:59.096Z,21.40
2019-04-10T00:18:29.734Z,21.50
2019-04-10T00:20:59.350Z,20.70
2019-04-10T00:23:29.069Z,21.20
2019-04-10T00:25:59.343Z,21.00
2019-04-10T00:28:29.632Z,21.10
2019-04-10T00:30:59.847Z,21.10
2019-04-10T00:33:29.423Z,21.00
2019-04-10T00:35:59.546Z,20.90
2019-04-10T00:38:29.551Z,20.70
2019-04-10T00:40:59.608Z,21.10
2019-04-10T00:43:29.287Z,20.80
2019-04-10T00:45:59.870Z,20.70
2019-04-10T00:48:30.062Z,20.80
2019-04-10T00:50:59.780Z,21.10
2019-04-10T00:53:29.577Z,21.00
2019-04-10T00:55:59.899Z,20.70
2019-04-10T00:58:30.196Z,20.90
2019-04-10T01:00:59.821Z,21.00
2019-04-10T01:03:46.727Z,21.20
2019-04-10T01:06:16.044Z,21.20
2019-04-10T01:08:45.869Z,21.50
2019-04-10T01:11:15.535Z,21.30
2019-04-10T01:13:45.690Z,21.50
2019-04-10T01:16:16.235Z,21.00
2019-04-10T01:18:46.043Z,21.30
2019-04-10T01:21:15.856Z,21.30
2019-04-10T01:23:45.445Z,21.60
2019-04-10T01:26:15.034Z,21.40
2019-04-10T01:28:45.080Z,21.60
2019-04-10T01:31:15.130Z,21.50
2019-04-10T01:33:46.055Z,21.90
2019-04-10T01:36:16.066Z,21.90
2019-04-10T01:38:46.182Z,22.20
2019-04-10T01:41:15.796Z,21.50
2019-04-10T01:43:45.452Z,22.20
2019-04-10T01:46:15.919Z,22.10
2019-04-10T01:48:45.623Z,22.40
2019-04-10T01:51:15.219Z,22.30
2019-04-10T01:53:44.882Z,22.60
2019-04-10T01:56:23.952Z,22.60
2019-04-10T01:58:47.691Z,23.00
2019-04-10T02:01:24.164Z,23.20
2019-04-10T02:03:54.285Z,23.30
2019-04-10T02:06:23.823Z,23.30
2019-04-10T02:08:54.210Z,23.90
2019-04-10T02:11:25.866Z,24.00
2019-04-10T02:13:56.711Z,23.40
2019-04-10T02:16:27.240Z,24.30
2019-04-10T02:18:57.702Z,25.00
2019-04-10T02:21:27.562Z,25.10
2019-04-10T02:23:57.176Z,25.40
2019-04-10T02:26:27.671Z,25.20
2019-04-10T02:28:57.619Z,25.10
2019-04-10T02:31:28.560Z,25.30
2019-04-10T02:33:59.904Z,25.10
2019-04-10T02:36:31.565Z,25.20
2019-04-10T02:39:13.976Z,25.90
2019-04-10T02:41:34.382Z,25.40
2019-04-10T02:44:04.858Z,25.70
2019-04-10T02:46:34.613Z,25.90
2019-04-10T02:49:04.708Z,26.30
2019-04-10T02:51:35.943Z,27.10
2019-04-10T02:54:05.719Z,31.20
2019-04-10T02:56:36.541Z,28.90
2019-04-10T02:59:07.304Z,28.00
2019-04-10T03:01:37.892Z,27.50
2019-04-10T03:04:09.763Z,27.10
2019-04-10T03:06:39.730Z,26.90
2019-04-10T03:09:26.357Z,27.20
2019-04-10T03:11:42.010Z,27.60
2019-04-10T03:14:12.558Z,27.50
2019-04-10T03:16:42.232Z,27.80
2019-04-10T03:19:12.029Z,27.30
2019-04-10T03:21:41.621Z,28.00
2019-04-10T03:24:11.851Z,27.90
2019-04-10T03:26:41.590Z,28.20
2019-04-10T03:29:11.629Z,28.40
2019-04-10T03:31:41.726Z,28.10
2019-04-10T03:34:20.560Z,28.20
2019-04-10T03:36:48.673Z,28.30
2019-04-10T03:39:18.753Z,28.60
2019-04-10T03:41:48.539Z,28.60
2019-04-10T03:44:18.717Z,28.10
2019-04-10T03:46:49.068Z,28.70
2019-04-10T03:49:19.907Z,29.20
2019-04-10T03:51:49.549Z,29.30
2019-04-10T03:54:19.082Z,28.60
2019-04-10T03:56:49.917Z,28.90
2019-04-10T03:59:20.180Z,28.90
2019-04-10T04:01:49.856Z,28.10
2019-04-10T04:04:19.664Z,28.90
2019-04-10T04:06:50.235Z,28.70
2019-04-10T04:09:19.819Z,28.70
2019-04-10T04:11:50.284Z,28.70
2019-04-10T04:14:20.065Z,28.70
2019-04-10T04:16:49.583Z,29.00
2019-04-10T04:19:19.181Z,28.90
2019-04-10T04:21:48.743Z,28.90
2019-04-10T04:24:21.122Z,28.50
2019-04-10T04:26:50.699Z,28.70
2019-04-10T04:29:20.693Z,28.60
2019-04-10T04:31:50.690Z,28.70
2019-04-10T04:34:20.898Z,28.90
2019-04-10T04:36:51.415Z,29.30
2019-04-10T04:39:26.165Z,29.10
2019-04-10T04:41:52.461Z,29.00
2019-04-10T04:44:22.356Z,29.10
2019-04-10T04:46:52.722Z,29.00
2019-04-10T04:49:22.567Z,29.10
2019-04-10T04:51:52.656Z,29.30
2019-04-10T04:54:23.096Z,29.30
2019-04-10T04:56:52.914Z,29.60
2019-04-10T04:59:22.520Z,29.00
2019-04-10T05:01:52.932Z,29.90
2019-04-10T05:04:22.897Z,30.10
2019-04-10T05:06:52.801Z,30.50
2019-04-10T05:09:31.186Z,30.30
2019-04-10T05:11:55.059Z,30.30
2019-04-10T05:14:24.676Z,30.60
2019-04-10T05:16:55.372Z,30.90
2019-04-10T05:19:25.617Z,30.10
2019-04-10T05:21:56.052Z,30.00
2019-04-10T05:24:25.930Z,30.00
2019-04-10T05:26:55.512Z,29.80
2019-04-10T05:29:25.136Z,29.60
2019-04-10T05:31:54.914Z,29.60
2019-04-10T05:34:25.445Z,29.50
2019-04-10T05:36:55.110Z,29.40
2019-04-10T05:39:24.915Z,28.70
2019-04-10T05:41:54.805Z,29.10
2019-04-10T05:44:25.487Z,28.90
2019-04-10T05:46:55.092Z,28.90
2019-04-10T05:49:24.716Z,28.90
2019-04-10T05:51:54.338Z,28.70
2019-04-10T05:54:24.702Z,28.50
2019-04-10T05:56:54.715Z,28.40
2019-04-10T05:59:24.363Z,28.30
2019-04-10T06:01:54.177Z,27.80
2019-04-10T06:04:23.744Z,27.90
2019-04-10T06:06:54.756Z,27.50
2019-04-10T06:09:24.708Z,27.50
2019-04-10T06:11:55.300Z,27.00
2019-04-10T06:14:26.116Z,26.80
2019-04-10T06:16:58.089Z,26.00
2019-04-10T06:19:27.311Z,26.70
2019-04-10T06:21:56.931Z,26.90
2019-04-10T06:24:27.861Z,26.80
2019-04-10T06:26:57.592Z,26.30
2019-04-10T06:29:27.133Z,26.20
2019-04-10T06:31:57.135Z,25.90
2019-04-10T06:34:26.688Z,26.20
2019-04-10T06:36:56.268Z,26.00
2019-04-10T06:39:26.827Z,25.30
2019-04-10T06:41:56.534Z,25.90
2019-04-10T06:44:26.072Z,26.00
2019-04-10T06:46:55.685Z,25.70
2019-04-10T06:49:25.254Z,25.30
2019-04-10T06:51:55.615Z,24.40
2019-04-10T06:54:25.453Z,23.80
2019-04-10T06:56:55.030Z,23.40
2019-04-10T06:59:28.262Z,23.70
2019-04-10T07:02:11.388Z,23.50
2019-04-10T07:04:42.294Z,23.90
2019-04-10T07:07:08.819Z,23.50
2019-04-10T07:09:32.204Z,23.90
2019-04-10T07:12:04.191Z,23.80
2019-04-10T07:14:36.297Z,23.10
2019-04-10T07:17:07.033Z,23.40
2019-04-10T07:19:36.500Z,23.30
2019-04-10T07:22:11.934Z,23.00
2019-04-10T07:24:41.346Z,23.40
2019-04-10T07:27:09.807Z,22.80
2019-04-10T07:29:40.360Z,22.00
2019-04-10T07:32:10.916Z,22.00
2019-04-10T07:34:43.159Z,22.40
2019-04-10T07:37:17.514Z,22.20
2019-04-10T07:39:44.833Z,21.80
2019-04-10T07:42:25.892Z,21.70
2019-04-10T07:44:45.877Z,21.40
2019-04-10T07:47:15.554Z,21.70
2019-04-10T07:49:46.192Z,21.90
2019-04-10T07:52:16.786Z,22.00
2019-04-10T07:54:46.657Z,22.20
2019-04-10T07:57:16.483Z,21.10
2019-04-10T07:59:46.350Z,21.50
2019-04-10T08:02:16.447Z,21.70
2019-04-10T08:04:46.022Z,20.30
2019-04-10T08:07:28.589Z,20.70
2019-04-10T08:09:46.854Z,20.50
2019-04-10T08:12:16.507Z,19.50
2019-04-10T08:14:46.384Z,18.40
2019-04-10T08:17:16.438Z,18.40
2019-04-10T08:19:46.279Z,17.40
2019-04-10T08:22:15.893Z,17.30
2019-04-10T08:24:47.175Z,16.50
2019-04-10T08:27:17.233Z,15.90
2019-04-10T08:29:46.855Z,15.90
2019-04-10T08:32:16.459Z,15.20
2019-04-10T08:34:46.434Z,15.10
2019-04-10T08:37:17.246Z,14.70
2019-04-10T08:39:49.154Z,14.10
2019-04-10T08:42:18.921Z,14.00
2019-04-10T08:44:48.733Z,14.10
2019-04-10T08:47:19.385Z,14.00
2019-04-10T08:49:49.476Z,14.10
2019-04-10T08:52:19.944Z,14.50
2019-04-10T08:54:49.800Z,13.90
2019-04-10T08:57:19.383Z,13.10
2019-04-10T08:59:48.985Z,13.10
2019-04-10T09:02:18.547Z,13.40
2019-04-10T09:04:49.019Z,12.50
2019-04-10T09:07:18.631Z,12.50
2019-04-10T09:09:48.222Z,12.50
2019-04-10T09:12:17.865Z,13.10
2019-04-10T09:14:47.631Z,12.40
2019-04-10T09:17:17.366Z,12.80
2019-04-10T09:19:47.271Z,12.60
2019-04-10T09:22:16.846Z,12.90
2019-04-10T09:24:46.792Z,12.70
2019-04-10T09:27:17.194Z,11.60
2019-04-10T09:29:47.037Z,11.70
2019-04-10T09:32:16.615Z,11.20
2019-04-10T09:34:46.833Z,11.60
2019-04-10T09:37:17.773Z,10.10
2019-04-10T09:39:48.511Z,11.40
2019-04-10T09:42:19.401Z,11.00
2019-04-10T09:44:49.331Z,11.40
2019-04-10T09:47:19.183Z,11.20
2019-04-10T09:49:49.267Z,11.50
2019-04-10T09:52:18.868Z,11.20
2019-04-10T09:54:48.938Z,11.00
2019-04-10T09:57:18.590Z,11.60
2019-04-10T09:59:48.965Z,11.60
2019-04-10T10:02:19.552Z,11.50
2019-04-10T10:04:50.450Z,12.90
2019-04-10T10:07:20.719Z,13.20
2019-04-10T10:09:51.348Z,13.00
2019-04-10T10:12:21.287Z,13.80
2019-04-10T10:14:51.919Z,13.30
2019-04-10T10:17:22.427Z,12.70
2019-04-10T10:19:53.837Z,11.90
2019-04-10T10:22:23.556Z,11.40
2019-04-10T10:24:53.156Z,11.10
2019-04-10T10:27:23.387Z,10.30
2019-04-10T10:29:54.880Z,10.60
2019-04-10T10:32:24.773Z,9.80
2019-04-10T10:34:54.595Z,9.40
2019-04-10T10:37:24.514Z,10.00
2019-04-10T10:39:54.878Z,10.70
2019-04-10T10:42:24.472Z,10.70
2019-04-10T10:44:54.442Z,7.80
2019-04-10T10:47:24.200Z,8.10
2019-04-10T10:49:54.834Z,7.70
2019-04-10T10:52:25.662Z,8.30
2019-04-10T10:54:55.584Z,7.00
2019-04-10T10:57:25.213Z,8.10
2019-04-10T10:59:54.771Z,8.10
2019-04-10T11:02:25.547Z,7.80
2019-04-10T11:04:55.804Z,8.10
2019-04-10T11:07:26.955Z,7.70
2019-04-10T11:09:56.905Z,6.60
2019-04-10T11:12:26.683Z,6.70
2019-04-10T11:14:56.306Z,6.20
2019-04-10T11:17:25.915Z,6.80
2019-04-10T11:19:55.901Z,6.60
2019-04-10T11:22:26.421Z,7.30
2019-04-10T11:24:56.074Z,7.10
2019-04-10T11:27:25.629Z,6.70
2019-04-10T11:29:55.462Z,6.40
2019-04-10T11:32:26.531Z,5.80
2019-04-10T11:34:56.901Z,6.60
2019-04-10T11:37:35.017Z,6.60
2019-04-10T11:39:58.611Z,6.70
2019-04-10T11:42:28.967Z,6.80
2019-04-10T11:44:59.379Z,7.50
2019-04-10T11:47:29.205Z,8.00
2019-04-10T11:50:00.977Z,6.90
2019-04-10T11:52:36.323Z,6.80
2019-04-10T11:55:10.699Z,6.60
2019-04-10T11:57:34.845Z,7.20
2019-04-10T12:00:08.829Z,6.10
2019-04-10T12:02:37.091Z,6.50
2019-04-10T12:05:09.526Z,5.90
2019-04-10T12:08:00.512Z,5.90
2019-04-10T12:12:41.738Z,3.60
2019-04-10T12:15:12.272Z,3.70
2019-04-10T12:17:43.085Z,4.20
2019-04-10T12:20:13.209Z,4.20
2019-04-10T12:22:44.079Z,4.80
2019-04-10T12:25:14.590Z,4.50
2019-04-10T12:27:45.279Z,4.40
2019-04-10T12:30:15.360Z,4.70
2019-04-10T12:32:45.966Z,5.10
2019-04-10T12:35:17.213Z,5.20
2019-04-10T12:37:57.278Z,5.00
2019-04-10T12:40:19.444Z,5.30
2019-04-10T12:42:49.255Z,4.70
2019-04-10T12:45:20.029Z,4.80
2019-04-10T12:47:50.273Z,4.80
2019-04-10T12:50:20.839Z,4.50
2019-04-10T12:52:51.279Z,5.50
2019-04-10T12:55:20.915Z,5.00
2019-04-10T12:57:51.024Z,5.00
2019-04-10T13:00:23.978Z,5.80
2019-04-10T13:02:54.551Z,5.80
2019-04-10T13:05:25.115Z,6.00
2019-04-10T13:07:56.035Z,6.10
2019-04-10T13:10:25.940Z,5.90
2019-04-10T13:12:55.648Z,5.20
2019-04-10T13:15:25.576Z,5.30
2019-04-10T13:17:56.990Z,5.90
2019-04-10T13:20:26.667Z,6.30
2019-04-10T13:22:58.259Z,6.30
2019-04-10T13:25:28.199Z,5.60
2019-04-10T13:27:57.701Z,5.90
2019-04-10T13:30:27.290Z,6.00
2019-04-10T13:32:58.232Z,4.90
2019-04-10T13:35:28.427Z,5.30
2019-04-10T13:37:58.954Z,5.10
2019-04-10T13:40:28.607Z,5.30
2019-04-10T13:42:58.523Z,5.30
2019-04-10T13:45:29.021Z,5.10
2019-04-10T13:47:58.871Z,4.60
2019-04-10T13:50:28.607Z,4.00
2019-04-10T13:52:59.426Z,4.50
2019-04-10T13:55:29.186Z,5.10
2019-04-10T13:57:59.926Z,4.70
2019-04-10T14:00:40.737Z,4.80
2019-04-10T14:03:10.896Z,3.90
2019-04-10T14:05:41.261Z,3.70
2019-04-10T14:08:12.471Z,4.30
2019-04-10T14:10:42.422Z,4.60
2019-04-10T14:13:12.115Z,4.50
2019-04-10T14:15:42.234Z,4.80
2019-04-10T14:18:12.291Z,2.60
2019-04-10T14:20:41.875Z,2.90
2019-04-10T14:23:18.159Z,1.70
2019-04-10T14:26:06.722Z,1.90
2019-04-10T14:28:37.495Z,1.80
2019-04-10T14:31:13.934Z,1.60
2019-04-10T14:33:44.739Z,1.50
2019-04-10T14:36:14.427Z,1.00
2019-04-10T14:38:44.032Z,1.00
2019-04-10T14:41:13.761Z,1.00
2019-04-10T14:43:45.167Z,1.00
2019-04-10T14:46:14.637Z,1.00
2019-04-10T14:48:44.670Z,1.00
2019-04-10T14:51:14.462Z,1.00
2019-04-10T14:53:44.148Z,1.00
2019-04-10T14:56:13.994Z,1.00
2019-04-10T14:58:44.593Z,1.00
2019-04-10T15:01:14.098Z,1.00
2019-04-10T15:03:44.530Z,1.00
2019-04-10T15:06:15.341Z,1.00
2019-04-10T15:08:46.000Z,1.00
2019-04-10T15:11:16.254Z,1.00
2019-04-10T15:13:45.923Z,1.00
2019-04-10T15:16:16.704Z,1.00
2019-04-10T15:18:46.313Z,1.00
2019-04-10T15:21:15.903Z,1.00
2019-04-10T15:23:45.501Z,1.00
2019-04-10T15:26:15.534Z,1.00
2019-04-10T15:28:45.158Z,1.00
2019-04-10T15:31:15.163Z,1.00
2019-04-10T15:33:45.123Z,1.00
2019-04-10T15:36:15.619Z,1.00
2019-04-10T15:38:46.417Z,1.00
2019-04-10T15:41:16.934Z,1.00
2019-04-10T15:43:47.608Z,1.00
2019-04-10T15:46:17.266Z,1.00
2019-04-10T15:48:46.898Z,1.00
2019-04-10T15:51:16.707Z,1.00
2019-04-10T15:53:47.310Z,1.00
2019-04-10T15:56:18.880Z,1.00
2019-04-10T15:58:48.123Z,1.00
2019-04-10T16:01:19.952Z,1.00
2019-04-10T16:03:50.598Z,1.00
2019-04-10T16:06:20.957Z,1.00
2019-04-10T16:08:50.523Z,1.00
2019-04-10T16:11:58.419Z,1.00
2019-04-10T16:14:30.221Z,1.00
2019-04-10T16:17:19.315Z,1.00
2019-04-10T16:20:14.205Z,1.00
2019-04-10T16:22:56.764Z,1.00
2019-04-10T16:25:30.075Z,1.00
2019-04-10T16:28:02.067Z,1.00
2019-04-10T16:30:32.951Z,1.00
2019-04-10T16:33:03.015Z,1.00
2019-04-10T16:35:35.447Z,1.00
2019-04-10T16:38:06.542Z,1.00
2019-04-10T16:40:36.488Z,1.00
2019-04-10T16:43:07.849Z,1.00
2019-04-10T16:45:38.519Z,1.00
2019-04-10T16:48:08.635Z,1.00
2019-04-10T16:50:38.454Z,1.00
2019-04-10T16:53:08.142Z,1.00
2019-04-10T16:55:37.961Z,1.00
2019-04-10T16:58:07.820Z,1.00
2019-04-10T17:00:37.691Z,1.00
2019-04-10T17:03:07.498Z,1.00
2019-04-10T17:05:37.709Z,1.00
2019-04-10T17:08:07.755Z,1.00
2019-04-10T17:10:38.577Z,1.00
2019-04-10T17:13:09.111Z,1.00
2019-04-10T17:15:39.954Z,1.00
2019-04-10T17:18:10.834Z,1.00
2019-04-10T17:20:40.993Z,1.00
2019-04-10T17:23:10.714Z,1.00
2019-04-10T17:25:40.256Z,1.00
2019-04-10T17:28:10.228Z,1.00
2019-04-10T17:30:40.151Z,1.00
2019-04-10T17:33:11.077Z,1.00
2019-04-10T17:35:40.754Z,1.00
2019-04-10T17:38:10.373Z,1.00
2019-04-10T17:40:47.708Z,1.00
2019-04-10T17:43:12.844Z,1.00
2019-04-10T17:45:42.769Z,1.00
2019-04-10T17:48:13.570Z,1.00
2019-04-10T17:50:43.777Z,1.00
2019-04-10T17:53:14.869Z,1.00
2019-04-10T17:55:44.820Z,1.40
2019-04-10T17:58:14.384Z,2.20
2019-04-10T18:00:45.697Z,2.80
2019-04-10T18:03:18.431Z,2.80
2019-04-10T18:05:46.917Z,3.20
2019-04-10T18:08:16.748Z,4.20
2019-04-10T18:10:50.828Z,4.30
2019-04-10T18:13:18.340Z,4.40
2019-04-10T18:15:48.371Z,4.50
2019-04-10T18:18:18.048Z,4.70
2019-04-10T18:20:49.505Z,5.30
2019-04-10T18:23:19.654Z,5.50
2019-04-10T18:25:49.889Z,5.70
2019-04-10T18:28:19.747Z,6.00
2019-04-10T18:30:49.288Z,5.40
2019-04-10T18:33:18.993Z,5.40
2019-04-10T18:35:49.082Z,6.30
2019-04-10T18:38:19.535Z,6.20
2019-04-10T18:40:56.001Z,6.50
2019-04-10T18:43:20.488Z,6.40
2019-04-10T18:46:03.350Z,6.90
2019-04-10T18:48:21.334Z,6.70
2019-04-10T18:50:51.603Z,6.80
2019-04-10T18:53:21.307Z,6.80
2019-04-10T18:55:50.828Z,6.00
2019-04-10T18:58:25.480Z,6.80
2019-04-10T19:01:20.978Z,6.80
2019-04-10T19:04:02.349Z,6.90
2019-04-10T19:06:36.455Z,6.10
2019-04-10T19:09:14.302Z,6.80
2019-04-10T19:11:38.540Z,7.00
2019-04-10T19:14:08.144Z,7.20
2019-04-10T19:16:37.711Z,7.10
2019-04-10T19:19:08.138Z,7.30
2019-04-10T19:21:37.823Z,7.10
2019-04-10T19:24:08.106Z,7.30
2019-04-10T19:26:37.882Z,7.40
2019-04-10T19:29:10.819Z,7.70
2019-04-10T19:31:43.600Z,7.60
2019-04-10T19:34:14.903Z,7.50
2019-04-10T19:36:46.464Z,7.40
2019-04-10T19:39:16.097Z,8.50
2019-04-10T19:41:46.897Z,8.30
2019-04-10T19:44:16.958Z,7.90
2019-04-10T19:46:48.023Z,8.30
2019-04-10T19:49:19.647Z,7.70
2019-04-10T19:51:50.791Z,8.40
2019-04-10T19:54:21.754Z,7.80
2019-04-10T19:56:52.795Z,8.60
2019-04-10T19:59:22.905Z,8.60
2019-04-10T20:01:52.753Z,8.70
2019-04-10T20:04:24.093Z,8.60
2019-04-10T20:06:54.429Z,8.70
2019-04-10T20:09:24.474Z,9.20
2019-04-10T20:11:57.182Z,9.40
2019-04-10T20:14:25.719Z,9.50
2019-04-10T20:16:55.546Z,9.50
2019-04-10T20:19:26.543Z,9.50
2019-04-10T20:21:56.515Z,9.70
2019-04-10T20:24:27.102Z,10.20
2019-04-10T20:26:57.008Z,10.60
2019-04-10T20:29:26.763Z,10.90
2019-04-10T20:31:57.576Z,10.90
2019-04-10T20:34:27.481Z,10.90
2019-04-10T20:36:57.695Z,11.30
2019-04-10T20:39:29.428Z,11.40
2019-04-10T20:42:00.607Z,11.60
2019-04-10T20:44:30.763Z,11.50
2019-04-10T20:47:02.887Z,11.20
2019-04-10T20:49:32.461Z,11.80
2019-04-10T20:52:02.129Z,11.10
2019-04-10T20:54:32.877Z,11.60
2019-04-10T20:57:03.376Z,12.00
2019-04-10T20:59:34.899Z,12.10
2019-04-10T21:02:04.512Z,12.00
2019-04-10T21:04:34.505Z,12.40
2019-04-10T21:07:04.893Z,12.70
2019-04-10T21:09:36.073Z,13.00
2019-04-10T21:12:10.425Z,12.90
2019-04-10T21:14:38.007Z,12.30
2019-04-10T21:17:08.749Z,12.90
2019-04-10T21:19:38.605Z,13.00
2019-04-10T21:22:08.224Z,13.20
2019-04-10T21:24:37.905Z,13.20
2019-04-10T21:27:09.037Z,13.40
2019-04-10T21:30:07.291Z,12.60
2019-04-10T21:32:43.990Z,13.60
2019-04-10T21:35:15.927Z,13.20
2019-04-10T21:37:46.567Z,14.10
2019-04-10T21:40:16.619Z,14.40
2019-04-10T21:42:47.478Z,13.80
2019-04-10T21:45:18.101Z,13.80
2019-04-10T21:47:48.138Z,13.50
2019-04-10T21:50:18.602Z,14.60
2019-04-10T21:52:49.833Z,14.60
2019-04-10T21:55:20.974Z,15.10
2019-04-10T21:57:51.100Z,15.20
2019-04-10T22:00:36.841Z,15.20
2019-04-10T22:03:07.046Z,15.20
2019-04-10T22:05:38.982Z,14.80
2019-04-10T22:08:15.230Z,15.80
2019-04-10T22:10:46.515Z,15.70
2019-04-10T22:13:16.110Z,15.80
2019-04-10T22:15:47.078Z,16.30
2019-04-10T22:18:16.978Z,16.60
2019-04-10T22:20:47.868Z,17.00
2019-04-10T22:23:18.094Z,17.00
2019-04-10T22:25:48.004Z,17.20
2019-04-10T22:28:17.555Z,17.70
2019-04-10T22:30:48.315Z,17.70
2019-04-10T22:33:18.177Z,18.20
2019-04-10T22:35:48.385Z,18.40
2019-04-10T22:38:18.044Z,18.20
2019-04-10T22:40:48.296Z,18.20
2019-04-10T22:43:18.125Z,18.30
2019-04-10T22:45:48.681Z,18.90
2019-04-10T22:48:18.891Z,18.80
2019-04-10T22:50:49.276Z,18.70
2019-04-10T22:53:19.341Z,18.60
2019-04-10T22:55:49.112Z,18.70
2019-04-10T22:58:19.145Z,18.70
2019-04-10T23:00:48.647Z,18.30
2019-04-10T23:03:18.265Z,19.20
2019-04-10T23:05:48.938Z,19.20
2019-04-10T23:08:19.745Z,19.50
2019-04-10T23:10:49.370Z,19.60
2019-04-10T23:13:19.003Z,20.70
2019-04-10T23:15:49.369Z,20.40
2019-04-10T23:18:19.570Z,20.10
2019-04-10T23:20:50.302Z,19.40
2019-04-10T23:23:21.053Z,20.40
2019-04-10T23:25:50.958Z,20.20
2019-04-10T23:28:20.561Z,20.20
2019-04-10T23:30:57.182Z,20.20
2019-04-10T23:33:28.020Z,20.10
2019-04-10T23:35:58.049Z,20.20
2019-04-10T23:38:27.829Z,19.60
2019-04-10T23:40:57.351Z,19.90
2019-04-10T23:43:27.391Z,20.10
2019-04-10T23:45:58.072Z,19.80
2019-04-10T23:48:28.747Z,20.00
2019-04-10T23:50:58.714Z,19.60
2019-04-10T23:53:28.793Z,20.10
2019-04-10T23:55:58.730Z,20.10
2019-04-10T23:58:28.411Z,20.00
